Time;durP1;ratioP1;P1;durP2;ratioP2;P2;SDS_P1;SDS_P2;PMS_P1;PMS_P2;Temp;Humidity;BMP_temperature;BMP_pressure;BME280_temperature;BME280_humidity;BME280_pressure;Samples;Min_cycle;Max_cycle;Signal;HPM_P1;HPM_P2
2023/01/06 00:00:20;;;;;;;0.30;0.30;;;11.70;99.90;;;;;;4973996;28;20095;-63
2023/01/06 00:02:47;;;;;;;0.30;0.30;;;11.60;99.90;;;;;;4973435;28;20102;-69
2023/01/06 00:05:13;;;;;;;2.53;0.60;;;11.60;99.90;;;;;;4974717;28;20497;-64
2023/01/06 00:07:39;;;;;;;1.08;1.02;;;11.60;99.90;;;;;;4974701;28;20544;-63
2023/01/06 00:10:06;;;;;;;1.25;0.43;;;11.70;99.90;;;;;;4974523;28;20484;-63
2023/01/06 00:12:32;;;;;;;1.17;0.80;;;11.70;99.90;;;;;;4974663;28;20074;-64
2023/01/06 00:14:58;;;;;;;4.03;0.90;;;11.60;99.90;;;;;;4974200;28;20031;-64
2023/01/06 00:17:24;;;;;;;1.55;0.65;;;11.60;99.90;;;;;;4973702;28;20022;-63
2023/01/06 00:19:50;;;;;;;1.60;0.60;;;11.70;99.90;;;;;;4974436;28;20023;-64
2023/01/06 00:22:17;;;;;;;0.60;0.25;;;11.60;99.90;;;;;;4974100;28;20150;-63
2023/01/06 00:24:42;;;;;;;0.22;0.22;;;11.70;99.90;;;;;;4974090;28;20035;-67
2023/01/06 00:27:08;;;;;;;0.30;0.30;;;11.70;99.90;;;;;;4974446;28;20039;-63
2023/01/06 00:29:34;;;;;;;2.20;0.35;;;11.70;99.90;;;;;;4974017;28;20043;-63
2023/01/06 00:32:01;;;;;;;0.10;0.10;;;11.90;99.90;;;;;;4974214;28;20472;-64
2023/01/06 00:34:28;;;;;;;0.03;0.03;;;11.80;99.90;;;;;;4974228;28;20023;-71
2023/01/06 00:36:55;;;;;;;0.40;0.40;;;11.80;99.90;;;;;;4974121;28;20047;-63
2023/01/06 00:39:21;;;;;;;0.00;0.00;;;11.70;99.90;;;;;;4956914;28;20023;-63
2023/01/06 00:42:02;;;;;;;6.32;0.22;;;11.80;99.90;;;;;;4975846;28;20077;-64
2023/01/06 00:44:33;;;;;;;1.80;0.80;;;11.60;99.90;;;;;;4974089;28;20027;-64
2023/01/06 00:46:58;;;;;;;0.77;0.32;;;11.80;99.90;;;;;;4973902;28;20019;-69
2023/01/06 00:49:25;;;;;;;15.20;2.55;;;11.60;99.90;;;;;;4972837;28;20389;-64
2023/01/06 00:51:51;;;;;;;0.20;0.20;;;11.70;99.90;;;;;;4973768;28;20070;-63
2023/01/06 00:54:17;;;;;;;4.47;0.47;;;11.60;99.90;;;;;;4974071;28;20035;-64
2023/01/06 00:56:47;;;;;;;10.70;1.00;;;11.50;99.90;;;;;;4974141;28;20062;-64
2023/01/06 00:59:15;;;;;;;0.73;0.73;;;11.50;99.90;;;;;;4972495;28;20023;-63
2023/01/06 01:01:42;;;;;;;0.15;0.15;;;11.60;99.90;;;;;;4973981;28;20031;-64
2023/01/06 01:04:08;;;;;;;5.80;0.45;;;11.60;99.90;;;;;;4973903;28;20038;-64
2023/01/06 01:06:35;;;;;;;0.52;0.52;;;11.70;99.90;;;;;;4972626;28;20062;-64
2023/01/06 01:09:02;;;;;;;0.50;0.50;;;11.60;99.90;;;;;;4973854;28;20054;-63
2023/01/06 01:14:14;;;;;;;4.25;0.70;;;11.60;99.90;;;;;;4973512;28;20461;-69
2023/01/06 01:16:41;;;;;;;0.10;0.10;;;11.50;99.90;;;;;;4973810;28;20019;-63
2023/01/06 01:19:07;;;;;;;0.08;0.08;;;11.40;99.90;;;;;;4973936;28;20098;-64
2023/01/06 01:21:33;;;;;;;1.10;0.47;;;11.50;99.90;;;;;;4971926;28;20061;-64
2023/01/06 01:23:58;;;;;;;0.10;0.10;;;11.40;99.90;;;;;;4971009;28;20058;-69
2023/01/06 01:26:24;;;;;;;4.93;0.90;;;11.40;99.90;;;;;;4970912;28;20715;-68
2023/01/06 01:28:50;;;;;;;0.57;0.47;;;11.40;99.90;;;;;;4972722;28;20039;-64
2023/01/06 01:31:16;;;;;;;3.75;1.02;;;11.50;99.90;;;;;;4975640;28;20031;-64
2023/01/06 01:33:42;;;;;;;0.20;0.20;;;11.50;99.90;;;;;;4976549;28;20019;-65
2023/01/06 01:36:11;;;;;;;1.00;0.40;;;11.50;99.90;;;;;;4975852;28;20101;-64
2023/01/06 01:38:36;;;;;;;5.53;0.52;;;11.50;99.90;;;;;;4974431;28;20490;-65
2023/01/06 01:41:02;;;;;;;2.10;1.10;;;11.50;99.90;;;;;;4974431;28;20023;-66
2023/01/06 01:43:48;;;;;;;3.08;0.68;;;11.50;99.90;;;;;;4975605;28;20039;-67
2023/01/06 01:46:18;;;;;;;4.90;1.27;;;11.50;99.90;;;;;;4973402;28;20427;-64
2023/01/06 01:48:45;;;;;;;0.00;0.00;;;11.50;99.90;;;;;;4975747;28;20078;-65
2023/01/06 01:54:06;;;;;;;1.40;0.50;;;11.50;99.90;;;;;;4933584;29;20452;-64
2023/01/06 01:56:36;;;;;;;6.75;1.08;;;11.70;99.90;;;;;;4936565;29;20032;-66
2023/01/06 01:59:10;;;;;;;2.65;0.35;;;11.50;99.90;;;;;;4921965;29;20019;-67
2023/01/06 02:01:36;;;;;;;0.57;0.57;;;11.60;99.90;;;;;;4934119;29;20111;-67
2023/01/06 02:04:03;;;;;;;0.15;0.13;;;11.50;99.90;;;;;;4934456;29;20114;-70
2023/01/06 02:06:30;;;;;;;0.40;0.40;;;11.60;99.90;;;;;;4937240;29;20016;-66
2023/01/06 02:09:08;;;;;;;1.63;0.63;;;11.60;99.90;;;;;;4935468;29;20036;-64
2023/01/06 02:11:36;;;;;;;0.30;0.30;;;11.60;99.90;;;;;;4936883;29;20381;-66
2023/01/06 02:14:13;;;;;;;1.98;0.95;;;11.60;99.90;;;;;;4936892;29;20038;-64
2023/01/06 02:16:55;;;;;;;1.60;0.70;;;11.50;99.90;;;;;;4930147;29;20388;-64
2023/01/06 02:19:33;;;;;;;0.40;0.40;;;11.50;99.90;;;;;;4926119;29;20027;-64
2023/01/06 02:22:42;;;;;;;0.68;0.68;;;11.50;99.90;;;;;;4936534;29;20080;-69
2023/01/06 02:25:41;;;;;;;0.57;0.40;;;11.50;99.90;;;;;;4933374;29;20131;-67
2023/01/06 02:28:40;;;;;;;0.10;0.10;;;11.50;99.90;;;;;;4927161;29;20043;-64
2023/01/06 02:31:31;;;;;;;0.60;0.40;;;11.50;99.90;;;;;;4933979;29;20362;-70
2023/01/06 02:34:16;;;;;;;1.33;0.88;;;11.50;99.90;;;;;;4920199;29;20102;-64
2023/01/06 02:36:58;;;;;;;2.28;0.93;;;11.60;99.90;;;;;;4928877;29;20054;-64
2023/01/06 02:39:33;;;;;;;1.42;0.60;;;11.60;99.90;;;;;;4921796;29;20040;-65
2023/01/06 02:42:18;;;;;;;1.23;0.32;;;11.50;99.90;;;;;;4932068;29;20051;-65
2023/01/06 02:44:57;;;;;;;0.95;0.68;;;11.50;99.90;;;;;;4930188;29;20034;-63
2023/01/06 02:47:43;;;;;;;0.43;0.15;;;11.60;99.90;;;;;;4934915;29;20067;-65
2023/01/06 02:50:36;;;;;;;1.33;0.82;;;11.50;99.90;;;;;;4935638;29;20106;-64
2023/01/06 02:53:15;;;;;;;1.30;0.80;;;11.40;99.90;;;;;;4928049;29;20032;-66
2023/01/06 02:55:45;;;;;;;0.98;0.60;;;11.40;99.90;;;;;;4935510;29;20106;-64
2023/01/06 02:58:14;;;;;;;2.28;0.73;;;11.40;99.90;;;;;;4935616;29;20385;-66
2023/01/06 03:00:50;;;;;;;1.45;0.85;;;11.50;99.90;;;;;;4939079;29;20118;-66
2023/01/06 03:03:21;;;;;;;0.22;0.22;;;11.40;99.90;;;;;;4937197;29;20036;-66
2023/01/06 03:05:55;;;;;;;2.03;0.40;;;11.40;99.90;;;;;;4937315;29;20031;-66
2023/01/06 03:08:25;;;;;;;1.00;0.50;;;11.40;99.90;;;;;;4934122;29;20031;-64
2023/01/06 03:10:52;;;;;;;10.13;1.33;;;11.40;99.90;;;;;;4935431;29;20028;-66
2023/01/06 03:13:29;;;;;;;0.47;0.45;;;11.40;99.90;;;;;;4925025;29;20038;-67
2023/01/06 03:15:57;;;;;;;0.68;0.68;;;11.40;99.90;;;;;;4918209;29;20067;-70
2023/01/06 03:18:23;;;;;;;3.30;0.63;;;11.50;99.90;;;;;;4920272;29;20103;-65
2023/01/06 03:20:52;;;;;;;0.20;0.20;;;11.40;99.90;;;;;;4918839;29;20032;-70
2023/01/06 03:23:19;;;;;;;3.85;0.98;;;11.30;99.90;;;;;;4919269;29;20043;-71
2023/01/06 03:25:45;;;;;;;0.10;0.10;;;11.30;99.90;;;;;;4916990;29;20381;-66
2023/01/06 03:28:11;;;;;;;0.52;0.52;;;11.30;99.90;;;;;;4917163;29;20503;-64
2023/01/06 03:30:48;;;;;;;0.50;0.38;;;11.30;99.90;;;;;;4919314;29;20044;-66
2023/01/06 03:33:43;;;;;;;0.20;0.20;;;11.30;99.90;;;;;;4923595;29;20034;-66
2023/01/06 03:36:27;;;;;;;5.00;1.10;;;11.30;99.90;;;;;;4919720;29;20020;-64
2023/01/06 03:39:08;;;;;;;3.38;0.52;;;11.30;99.90;;;;;;4916243;29;20398;-69
2023/01/06 03:45:00;;;;;;;0.40;0.35;;;11.30;99.90;;;;;;4915260;29;20070;-67
2023/01/06 03:47:52;;;;;;;1.48;0.60;;;11.20;99.90;;;;;;4918543;29;20091;-68
2023/01/06 03:50:27;;;;;;;0.20;0.20;;;11.20;99.90;;;;;;4918341;29;20128;-66
2023/01/06 03:53:15;;;;;;;3.83;1.02;;;11.30;99.90;;;;;;4901128;29;20451;-69
2023/01/06 03:55:45;;;;;;;0.52;0.52;;;11.30;99.90;;;;;;4916695;29;20031;-65
2023/01/06 03:58:13;;;;;;;2.08;1.73;;;11.30;99.90;;;;;;4916314;29;20098;-68
2023/01/06 04:00:40;;;;;;;0.50;0.50;;;11.30;99.90;;;;;;4916409;29;20901;-67
2023/01/06 04:03:12;;;;;;;0.20;0.20;;;11.30;99.90;;;;;;4917195;29;20568;-70
2023/01/06 04:05:39;;;;;;;;;;;11.30;99.90;;;;;;4923875;29;20040;-67
2023/01/06 04:08:06;;;;;;;5.60;1.50;;;11.40;99.90;;;;;;4920317;29;20284;-64
2023/01/06 04:10:32;;;;;;;0.13;0.13;;;11.30;99.90;;;;;;4917677;29;20036;-64
2023/01/06 04:12:58;;;;;;;1.27;0.47;;;11.50;99.90;;;;;;4921700;29;20381;-64
2023/01/06 04:15:31;;;;;;;0.47;0.30;;;11.40;99.90;;;;;;4932615;29;20031;-64
2023/01/06 04:17:58;;;;;;;0.25;0.25;;;11.40;99.90;;;;;;4933898;29;20059;-65
2023/01/06 04:20:28;;;;;;;0.80;0.55;;;11.40;99.90;;;;;;4934444;29;20265;-68
2023/01/06 04:23:09;;;;;;;4.95;0.45;;;11.30;99.90;;;;;;4932979;29;20062;-65
2023/01/06 04:25:38;;;;;;;15.23;1.00;;;11.30;99.90;;;;;;4933990;29;20394;-67
2023/01/06 04:28:12;;;;;;;0.70;0.38;;;11.30;99.90;;;;;;4933709;29;20047;-70
2023/01/06 04:30:38;;;;;;;0.10;0.10;;;11.40;99.90;;;;;;4934729;29;20020;-65
2023/01/06 04:33:04;;;;;;;3.15;0.90;;;11.30;99.90;;;;;;4933118;29;20039;-65
2023/01/06 04:35:30;;;;;;;0.35;0.32;;;11.30;99.90;;;;;;4933580;29;20441;-64
2023/01/06 04:38:01;;;;;;;0.55;0.45;;;11.30;99.90;;;;;;4932041;29;20023;-67
2023/01/06 04:40:26;;;;;;;0.30;0.30;;;11.30;99.90;;;;;;4933126;29;20035;-64
2023/01/06 04:43:04;;;;;;;1.95;0.65;;;11.40;99.90;;;;;;4934282;29;20532;-65
2023/01/06 04:45:31;;;;;;;0.45;0.40;;;11.40;99.90;;;;;;4928046;29;20032;-69
2023/01/06 04:47:57;;;;;;;0.28;0.28;;;11.50;99.90;;;;;;4916800;29;20035;-70
2023/01/06 04:50:22;;;;;;;2.45;0.75;;;11.40;99.90;;;;;;4931171;29;20036;-66
2023/01/06 04:52:48;;;;;;;0.00;0.00;;;11.40;99.90;;;;;;4923934;29;20404;-67
2023/01/06 04:55:14;;;;;;;0.70;0.35;;;11.40;99.90;;;;;;4934927;29;20028;-66
2023/01/06 04:57:39;;;;;;;0.13;0.13;;;11.30;99.90;;;;;;4935192;29;20408;-67
2023/01/06 05:00:06;;;;;;;0.70;0.17;;;11.40;99.90;;;;;;4935000;29;20034;-64
2023/01/06 05:02:32;;;;;;;0.68;0.68;;;11.50;99.90;;;;;;4927315;29;20028;-65
2023/01/06 05:04:57;;;;;;;10.68;2.47;;;11.50;99.90;;;;;;4934086;29;20035;-65
2023/01/06 05:07:23;;;;;;;5.68;0.45;;;11.40;99.90;;;;;;4934923;29;20496;-65
2023/01/06 05:09:49;;;;;;;6.45;0.28;;;11.40;99.90;;;;;;4935440;29;20381;-68
2023/01/06 05:12:15;;;;;;;0.30;0.30;;;11.40;99.90;;;;;;4934980;29;20028;-68
2023/01/06 05:14:40;;;;;;;9.10;0.52;;;11.40;99.90;;;;;;4936197;29;20043;-66
2023/01/06 05:17:06;;;;;;;1.13;0.52;;;11.40;99.90;;;;;;4935217;29;20056;-65
2023/01/06 05:19:32;;;;;;;0.47;0.40;;;11.50;99.90;;;;;;4935198;29;20392;-64
2023/01/06 05:21:58;;;;;;;0.30;0.30;;;11.50;99.90;;;;;;4935381;29;20083;-64
2023/01/06 05:24:23;;;;;;;0.63;0.55;;;11.40;99.90;;;;;;4935392;29;20032;-64
2023/01/06 05:26:49;;;;;;;4.75;0.82;;;11.40;99.90;;;;;;4918188;29;20500;-64
2023/01/06 05:29:18;;;;;;;2.67;0.70;;;11.40;99.90;;;;;;4935538;29;20039;-64
2023/01/06 05:31:44;;;;;;;0.57;0.57;;;11.40;99.90;;;;;;4917954;29;20027;-64
2023/01/06 05:34:10;;;;;;;1.05;0.40;;;11.40;99.90;;;;;;4935230;29;20083;-64
2023/01/06 05:36:36;;;;;;;0.43;0.43;;;11.30;99.90;;;;;;4933644;29;20032;-64
2023/01/06 05:39:05;;;;;;;2.53;0.70;;;11.30;99.90;;;;;;4935066;29;20038;-64
2023/01/06 05:41:31;;;;;;;0.40;0.30;;;11.40;99.90;;;;;;4934994;29;20115;-64
2023/01/06 05:43:56;;;;;;;0.40;0.15;;;11.40;99.90;;;;;;4935114;29;20032;-64
2023/01/06 05:46:22;;;;;;;0.30;0.30;;;11.40;99.90;;;;;;4934963;29;20116;-67
2023/01/06 05:48:48;;;;;;;0.60;0.40;;;11.40;99.90;;;;;;4934607;29;20063;-64
2023/01/06 05:51:15;;;;;;;2.13;0.82;;;11.40;99.90;;;;;;4917745;29;20489;-69
2023/01/06 05:53:43;;;;;;;4.13;0.65;;;11.40;99.90;;;;;;4934737;29;20233;-66
2023/01/06 05:56:12;;;;;;;2.30;0.68;;;11.40;99.90;;;;;;4934791;29;20020;-65
2023/01/06 05:58:41;;;;;;;1.70;0.40;;;11.40;99.90;;;;;;4934973;29;20043;-64
2023/01/06 06:01:16;;;;;;;2.20;0.75;;;11.30;99.90;;;;;;4933868;29;20028;-64
2023/01/06 06:03:42;;;;;;;0.30;0.30;;;11.30;99.90;;;;;;4917444;29;20168;-65
2023/01/06 06:06:08;;;;;;;0.30;0.30;;;11.30;99.90;;;;;;4935005;29;20043;-67
2023/01/06 06:08:34;;;;;;;0.77;0.57;;;11.40;99.90;;;;;;4934584;29;20035;-65
2023/01/06 06:11:04;;;;;;;4.63;1.90;;;11.40;99.90;;;;;;4934896;29;20028;-67
2023/01/06 06:13:30;;;;;;;0.35;0.30;;;11.40;99.90;;;;;;4934687;29;20031;-64
2023/01/06 06:16:10;;;;;;;0.40;0.40;;;11.40;99.90;;;;;;4935583;29;20083;-69
2023/01/06 06:18:43;;;;;;;27.05;0.80;;;11.40;99.90;;;;;;4920836;29;20043;-66
2023/01/06 06:21:12;;;;;;;0.65;0.40;;;11.40;99.90;;;;;;4937958;29;20036;-68
2023/01/06 06:23:38;;;;;;;0.60;0.60;;;11.50;99.90;;;;;;4937866;29;20107;-65
2023/01/06 06:26:04;;;;;;;0.32;0.32;;;11.40;99.90;;;;;;4938229;29;20020;-65
2023/01/06 06:28:31;;;;;;;0.38;0.38;;;11.50;99.90;;;;;;4937951;29;20103;-64
2023/01/06 06:31:08;;;;;;;3.90;0.82;;;11.50;99.90;;;;;;4938033;29;20027;-66
2023/01/06 06:33:34;;;;;;;0.47;0.47;;;11.40;99.90;;;;;;4925148;29;20042;-64
2023/01/06 06:36:00;;;;;;;0.30;0.30;;;11.50;99.90;;;;;;4937822;29;20110;-66
2023/01/06 06:38:27;;;;;;;0.40;0.40;;;11.50;99.90;;;;;;4937600;29;20106;-65
2023/01/06 06:40:53;;;;;;;0.40;0.40;;;11.60;99.90;;;;;;4938113;29;20115;-64
2023/01/06 06:43:19;;;;;;;0.50;0.40;;;11.60;99.90;;;;;;4937650;29;20043;-66
2023/01/06 06:45:46;;;;;;;0.47;0.47;;;11.60;99.90;;;;;;4937835;29;20507;-64
2023/01/06 06:48:11;;;;;;;0.52;0.40;;;11.60;99.90;;;;;;4937218;29;20440;-64
2023/01/06 06:50:37;;;;;;;0.25;0.25;;;11.50;99.90;;;;;;4937768;29;20039;-66
2023/01/06 06:53:03;;;;;;;6.25;1.73;;;11.50;99.90;;;;;;4937283;29;20493;-64
2023/01/06 06:55:29;;;;;;;0.20;0.20;;;11.30;99.90;;;;;;4937407;29;20092;-64
2023/01/06 06:57:55;;;;;;;0.25;0.25;;;11.40;99.90;;;;;;4936984;29;20023;-64
2023/01/06 07:00:21;;;;;;;0.68;0.38;;;11.40;99.90;;;;;;4936715;29;20039;-65
2023/01/06 07:02:48;;;;;;;0.17;0.17;;;11.30;99.90;;;;;;4919926;29;20028;-64
2023/01/06 07:05:14;;;;;;;0.75;0.45;;;11.30;99.90;;;;;;4934610;29;20024;-65
2023/01/06 07:07:41;;;;;;;2.13;0.55;;;11.30;99.90;;;;;;4917723;29;20449;-65
2023/01/06 07:10:07;;;;;;;1.45;0.77;;;11.30;99.90;;;;;;4918374;29;20059;-69
2023/01/06 07:12:32;;;;;;;0.35;0.30;;;11.30;99.90;;;;;;4918846;29;20446;-65
2023/01/06 07:14:58;;;;;;;0.20;0.20;;;11.20;99.90;;;;;;4916812;29;20032;-64
2023/01/06 07:17:27;;;;;;;4.53;0.55;;;11.10;99.90;;;;;;4917986;29;20043;-64
2023/01/06 07:19:53;;;;;;;0.40;0.40;;;11.20;99.90;;;;;;4916710;29;20012;-65
2023/01/06 07:22:19;;;;;;;9.60;0.95;;;11.10;99.90;;;;;;4920901;29;20047;-65
2023/01/06 07:24:45;;;;;;;0.30;0.30;;;11.10;99.90;;;;;;4924149;29;20043;-69
2023/01/06 07:27:10;;;;;;;0.90;0.55;;;11.10;99.90;;;;;;4936533;29;20380;-69
2023/01/06 07:29:36;;;;;;;0.30;0.30;;;11.00;99.90;;;;;;4935943;29;20035;-69
2023/01/06 07:32:02;;;;;;;0.35;0.20;;;11.10;99.90;;;;;;4936521;29;20032;-69
2023/01/06 07:34:28;;;;;;;0.15;0.13;;;11.10;99.90;;;;;;4935725;29;20032;-67
2023/01/06 07:36:54;;;;;;;0.15;0.15;;;11.10;99.90;;;;;;4936679;29;20035;-65
2023/01/06 07:39:19;;;;;;;0.57;0.50;;;11.10;99.90;;;;;;4932116;29;20043;-71
2023/01/06 07:41:45;;;;;;;0.10;0.10;;;11.10;99.90;;;;;;4926962;29;20031;-67
2023/01/06 07:44:11;;;;;;;0.45;0.45;;;11.20;99.90;;;;;;4924345;29;20024;-65
2023/01/06 07:46:37;;;;;;;0.43;0.43;;;11.10;99.90;;;;;;4917411;29;20035;-68
2023/01/06 07:49:02;;;;;;;0.70;0.60;;;11.10;99.90;;;;;;4918309;29;20059;-65
2023/01/06 07:51:28;;;;;;;0.80;0.30;;;11.10;99.90;;;;;;4918592;29;20107;-64
2023/01/06 07:53:54;;;;;;;10.75;1.90;;;11.10;99.90;;;;;;4919335;29;20036;-64
2023/01/06 07:56:23;;;;;;;0.38;0.28;;;11.10;99.90;;;;;;4917854;29;20024;-65
2023/01/06 07:58:49;;;;;;;1.27;0.68;;;11.10;99.90;;;;;;4920862;29;20040;-72
2023/01/06 08:01:15;;;;;;;3.40;0.52;;;11.10;99.90;;;;;;4925603;29;20039;-66
2023/01/06 08:03:41;;;;;;;1.38;0.73;;;11.10;99.90;;;;;;4935240;29;20036;-65
2023/01/06 08:06:10;;;;;;;0.32;0.32;;;11.10;99.90;;;;;;4931611;29;20031;-65
2023/01/06 08:08:37;;;;;;;0.10;0.10;;;11.10;99.90;;;;;;4918438;29;20032;-64
2023/01/06 08:11:04;;;;;;;0.63;0.60;;;11.10;99.90;;;;;;4923925;29;20051;-65
2023/01/06 08:13:31;;;;;;;0.30;0.20;;;11.10;99.90;;;;;;4930904;29;20512;-65
2023/01/06 08:15:56;;;;;;;0.65;0.40;;;11.10;99.90;;;;;;4935622;29;20035;-65
2023/01/06 08:18:22;;;;;;;0.00;0.00;;;11.10;99.90;;;;;;4935642;29;20032;-65
2023/01/06 08:20:48;;;;;;;2.10;0.98;;;11.10;99.90;;;;;;4933596;29;20032;-67
2023/01/06 08:23:13;;;;;;;0.20;0.20;;;11.20;99.90;;;;;;4936414;29;20034;-65
2023/01/06 08:25:39;;;;;;;1.65;0.52;;;11.20;99.90;;;;;;4935916;29;20035;-66
2023/01/06 08:28:05;;;;;;;0.10;0.10;;;11.20;99.90;;;;;;4935548;29;20046;-65
2023/01/06 08:30:31;;;;;;;0.10;0.10;;;11.30;99.90;;;;;;4935853;29;20019;-65
2023/01/06 08:32:58;;;;;;;0.70;0.55;;;11.30;99.90;;;;;;4918672;29;20118;-65
2023/01/06 08:35:24;;;;;;;1.15;0.80;;;11.30;99.90;;;;;;4918829;29;20031;-65
2023/01/06 08:37:50;;;;;;;0.57;0.57;;;11.20;99.90;;;;;;4935611;29;20120;-65
2023/01/06 08:40:16;;;;;;;0.50;0.50;;;11.30;99.90;;;;;;4935228;29;20106;-65
2023/01/06 08:42:42;;;;;;;1.27;0.73;;;11.30;99.90;;;;;;4935594;29;20118;-66
2023/01/06 08:45:08;;;;;;;0.55;0.22;;;11.30;99.90;;;;;;4934540;29;20027;-65
2023/01/06 08:47:34;;;;;;;0.47;0.47;;;11.40;99.90;;;;;;4935886;29;20036;-66
2023/01/06 08:50:00;;;;;;;0.30;0.30;;;11.40;99.90;;;;;;4935612;29;20079;-65
2023/01/06 08:52:26;;;;;;;0.55;0.55;;;11.30;99.90;;;;;;4935258;29;20027;-67
2023/01/06 08:54:52;;;;;;;2.75;1.05;;;11.40;99.90;;;;;;4918525;29;20047;-65
2023/01/06 08:57:17;;;;;;;0.00;0.00;;;11.40;99.90;;;;;;4935395;29;20020;-67
2023/01/06 08:59:43;;;;;;;1.70;0.90;;;11.40;99.90;;;;;;4935481;29;20140;-65
2023/01/06 09:02:10;;;;;;;0.93;0.70;;;11.20;99.90;;;;;;4935294;29;20027;-68
2023/01/06 09:04:35;;;;;;;1.10;0.68;;;11.30;99.90;;;;;;4935665;29;20484;-65
2023/01/06 09:07:01;;;;;;;0.75;0.75;;;11.20;99.90;;;;;;4935339;29;20028;-65
2023/01/06 09:09:27;;;;;;;0.10;0.10;;;11.40;99.90;;;;;;4935568;29;20550;-65
2023/01/06 09:11:53;;;;;;;6.13;0.85;;;11.50;99.90;;;;;;4935189;29;20548;-66
2023/01/06 09:14:19;;;;;;;5.63;1.10;;;11.50;99.90;;;;;;4935661;29;20030;-65
2023/01/06 09:16:47;;;;;;;1.25;0.80;;;11.50;99.90;;;;;;4935436;29;20400;-65
2023/01/06 09:19:15;;;;;;;1.45;1.30;;;11.40;99.90;;;;;;4935408;29;20032;-65
2023/01/06 09:21:41;;;;;;;2.90;1.55;;;11.60;99.90;;;;;;4935638;29;20103;-67
2023/01/06 09:24:12;;;;;;;8.10;1.50;;;11.50;99.90;;;;;;4935429;29;20035;-66
2023/01/06 09:26:37;;;;;;;1.60;0.93;;;11.50;99.90;;;;;;4934880;29;20098;-65
2023/01/06 09:29:03;;;;;;;1.20;0.45;;;11.60;99.90;;;;;;4935262;29;20043;-65
2023/01/06 09:31:29;;;;;;;0.90;0.60;;;11.70;99.90;;;;;;4935241;29;20051;-66
2023/01/06 09:33:55;;;;;;;0.32;0.25;;;11.70;99.90;;;;;;4935411;29;20038;-66
2023/01/06 09:36:21;;;;;;;0.77;0.43;;;11.70;99.90;;;;;;4935102;29;20477;-66
2023/01/06 09:38:46;;;;;;;11.05;1.95;;;12.00;99.90;;;;;;4931401;29;20038;-66
2023/01/06 09:41:30;;;;;;;0.35;0.35;;;12.00;99.90;;;;;;4930179;29;20032;-68
2023/01/06 09:44:10;;;;;;;0.25;0.25;;;12.10;99.90;;;;;;4933894;29;20042;-70
2023/01/06 09:46:39;;;;;;;9.60;1.73;;;12.20;99.90;;;;;;4935103;29;20070;-66
2023/01/06 09:49:24;;;;;;;0.38;0.38;;;12.00;99.90;;;;;;4935175;29;20100;-65
2023/01/06 09:51:54;;;;;;;5.32;1.23;;;11.80;99.90;;;;;;4938613;29;20027;-72
2023/01/06 09:54:30;;;;;;;0.20;0.20;;;11.70;99.90;;;;;;4938505;29;20031;-65
2023/01/06 09:57:15;;;;;;;1.35;1.23;;;11.70;99.90;;;;;;4938800;29;20050;-66
2023/01/06 10:00:04;;;;;;;1.33;1.02;;;11.50;99.90;;;;;;4938875;29;20039;-68
2023/01/06 10:02:37;;;;;;;2.00;1.73;;;11.50;99.90;;;;;;4910750;29;20031;-65
2023/01/06 10:05:18;;;;;;;0.60;0.57;;;11.50;99.90;;;;;;4938330;29;20047;-68
2023/01/06 10:08:03;;;;;;;13.15;3.15;;;11.50;99.90;;;;;;4938350;29;20418;-69
2023/01/06 10:10:43;;;;;;;3.08;0.80;;;11.60;99.90;;;;;;4938409;29;20059;-68
2023/01/06 10:13:33;;;;;;;4.07;1.05;;;11.70;99.90;;;;;;4938365;29;20032;-69
2023/01/06 10:16:19;;;;;;;1.85;1.08;;;12.00;99.90;;;;;;4927430;29;20047;-66
2023/01/06 10:19:02;;;;;;;1.13;0.43;;;12.70;99.90;;;;;;4938919;29;20066;-71
2023/01/06 10:21:59;;;;;;;0.80;0.65;;;12.90;99.90;;;;;;4942414;29;20046;-66
2023/01/06 10:24:49;;;;;;;0.47;0.47;;;13.10;99.90;;;;;;4929921;29;20062;-67
2023/01/06 10:27:38;;;;;;;6.50;1.65;;;13.10;99.90;;;;;;4938303;29;20507;-69
2023/01/06 10:30:18;;;;;;;1.88;0.85;;;13.20;99.90;;;;;;4925011;29;20040;-67
2023/01/06 10:32:46;;;;;;;3.10;1.13;;;13.20;99.90;;;;;;4938106;29;20035;-65
2023/01/06 10:35:15;;;;;;;1.20;0.40;;;12.80;99.90;;;;;;4938321;29;20492;-67
2023/01/06 10:37:47;;;;;;;5.93;1.63;;;12.80;99.90;;;;;;4938019;29;20054;-65
2023/01/06 10:40:16;;;;;;;0.10;0.10;;;12.60;99.90;;;;;;4938038;29;20444;-66
2023/01/06 10:42:59;;;;;;;9.30;0.47;;;13.10;99.90;;;;;;4937731;29;20036;-66
2023/01/06 10:45:30;;;;;;;0.28;0.28;;;13.30;99.90;;;;;;4937837;29;20163;-69
2023/01/06 10:47:57;;;;;;;8.07;0.90;;;13.80;99.90;;;;;;4937880;29;20098;-65
2023/01/06 10:50:23;;;;;;;0.40;0.40;;;13.50;99.90;;;;;;4937808;29;20024;-65
2023/01/06 10:52:49;;;;;;;6.95;1.83;;;13.80;99.90;;;;;;4937059;29;20048;-67
2023/01/06 10:55:28;;;;;;;4.88;1.27;;;13.30;99.90;;;;;;4937888;29;20035;-66
2023/01/06 10:57:58;;;;;;;6.13;2.25;;;13.50;99.90;;;;;;4937579;29;20032;-66
2023/01/06 11:00:25;;;;;;;1.40;1.30;;;13.90;99.90;;;;;;4937646;29;20031;-67
2023/01/06 11:02:56;;;;;;;4.22;2.33;;;14.00;99.90;;;;;;4935456;29;20396;-65
2023/01/06 11:05:24;;;;;;;0.47;0.40;;;13.60;99.90;;;;;;4936073;29;20512;-67
2023/01/06 11:08:03;;;;;;;2.17;0.68;;;13.90;99.90;;;;;;4937303;29;20031;-67
2023/01/06 11:10:51;;;;;;;14.73;2.78;;;13.70;99.90;;;;;;4937188;29;20035;-69
2023/01/06 11:13:33;;;;;;;0.82;0.40;;;13.90;99.90;;;;;;4937189;29;20385;-68
2023/01/06 11:16:03;;;;;;;3.42;1.10;;;14.00;99.90;;;;;;4920114;29;20032;-68
2023/01/06 11:18:31;;;;;;;9.35;1.23;;;14.40;99.90;;;;;;4937191;29;20043;-67
2023/01/06 11:21:13;;;;;;;2.00;1.90;;;14.40;99.90;;;;;;4937122;29;20055;-69
2023/01/06 11:23:41;;;;;;;6.57;0.40;;;14.60;99.90;;;;;;4919823;29;20380;-66
2023/01/06 11:26:18;;;;;;;5.07;1.30;;;14.20;99.90;;;;;;4936963;29;20030;-64
2023/01/06 11:28:46;;;;;;;6.82;1.80;;;13.80;99.90;;;;;;4936733;29;20080;-66
2023/01/06 11:31:21;;;;;;;7.15;0.22;;;14.00;99.90;;;;;;4936820;29;20023;-68
2023/01/06 11:33:55;;;;;;;1.17;1.08;;;14.20;99.90;;;;;;4919719;29;20028;-68
2023/01/06 11:36:24;;;;;;;34.78;1.98;;;14.30;99.90;;;;;;4936658;29;20050;-68
2023/01/06 11:38:59;;;;;;;0.10;0.10;;;14.70;99.90;;;;;;4936786;29;20083;-67
2023/01/06 11:41:27;;;;;;;1.13;0.50;;;14.90;99.90;;;;;;4936682;29;20144;-67
2023/01/06 11:44:01;;;;;;;0.55;0.55;;;14.10;99.90;;;;;;4936808;29;20481;-68
2023/01/06 11:46:27;;;;;;;1.80;0.68;;;13.90;99.90;;;;;;4936696;29;20032;-65
2023/01/06 11:49:01;;;;;;;6.70;1.35;;;13.80;99.90;;;;;;4936734;29;20114;-65
2023/01/06 11:51:42;;;;;;;1.45;0.65;;;13.80;99.90;;;;;;4936145;29;20031;-66
2023/01/06 11:54:34;;;;;;;0.93;0.75;;;14.50;99.90;;;;;;4935498;29;20370;-70
2023/01/06 11:57:20;;;;;;;;;;;15.20;99.90;;;;;;4935652;29;20038;-66
2023/01/06 12:00:18;;;;;;;19.08;0.68;;;15.40;99.90;;;;;;4897474;29;19910;-66
2023/01/06 12:03:06;;;;;;;0.00;0.00;;;15.70;99.90;;;;;;4931306;29;20407;-66
2023/01/06 12:05:48;;;;;;;6.60;1.30;;;15.60;99.90;;;;;;4935927;29;20038;-66
2023/01/06 12:08:18;;;;;;;7.82;0.75;;;15.30;99.90;;;;;;4936326;29;20389;-65
2023/01/06 12:10:48;;;;;;;0.10;0.10;;;14.70;99.90;;;;;;4936407;29;20354;-67
2023/01/06 12:13:14;;;;;;;5.95;1.33;;;14.40;99.90;;;;;;4919220;29;20038;-67
2023/01/06 12:15:44;;;;;;;0.10;0.10;;;14.20;99.90;;;;;;4936139;29;20036;-65
2023/01/06 12:18:15;;;;;;;4.97;0.93;;;13.80;99.90;;;;;;4936249;29;20103;-66
2023/01/06 12:20:45;;;;;;;1.10;0.53;;;13.50;99.90;;;;;;4935759;29;20110;-65
2023/01/06 12:23:37;;;;;;;2.72;0.90;;;13.40;99.90;;;;;;4934796;29;20292;-66
2023/01/06 12:26:11;;;;;;;3.22;1.15;;;13.40;99.90;;;;;;4929262;29;20050;-68
2023/01/06 12:28:40;;;;;;;1.27;0.50;;;13.40;99.90;;;;;;4936155;29;20055;-70
2023/01/06 12:31:15;;;;;;;7.53;1.35;;;13.20;99.90;;;;;;4918785;29;20114;-67
2023/01/06 12:34:05;;;;;;;0.15;0.15;;;13.30;99.90;;;;;;4936346;29;20353;-69
2023/01/06 12:36:56;;;;;;;0.82;0.63;;;13.40;99.90;;;;;;4918850;29;20115;-68
2023/01/06 12:39:49;;;;;;;1.40;0.70;;;12.90;99.90;;;;;;4935906;29;20036;-68
2023/01/06 12:42:28;;;;;;;1.17;0.65;;;13.00;99.90;;;;;;4918824;29;20514;-67
2023/01/06 12:45:10;;;;;;;1.38;1.08;;;13.20;99.90;;;;;;4935778;29;20400;-70
2023/01/06 12:47:48;;;;;;;0.00;0.00;;;13.30;99.90;;;;;;4918945;29;20067;-70
2023/01/06 12:50:38;;;;;;;1.88;1.00;;;13.70;99.90;;;;;;4919507;29;20048;-66
2023/01/06 12:53:10;;;;;;;2.35;1.17;;;13.50;99.90;;;;;;4935689;29;20102;-67
2023/01/06 12:55:36;;;;;;;3.78;1.42;;;13.40;99.90;;;;;;4935819;29;20028;-67
2023/01/06 12:58:07;;;;;;;1.35;0.55;;;13.10;99.90;;;;;;4935918;29;20086;-65
2023/01/06 13:00:39;;;;;;;13.00;1.30;;;13.10;99.90;;;;;;4935286;29;20110;-65
2023/01/06 13:03:19;;;;;;;1.30;1.20;;;13.00;99.90;;;;;;4935603;29;20476;-66
2023/01/06 13:06:13;;;;;;;3.20;0.93;;;13.30;99.90;;;;;;4935536;29;20421;-65
2023/01/06 13:09:03;;;;;;;3.17;0.70;;;13.20;99.90;;;;;;4918339;29;20050;-67
2023/01/06 13:11:41;;;;;;;0.25;0.25;;;13.20;99.90;;;;;;4935502;29;20456;-68
2023/01/06 13:14:34;;;;;;;0.63;0.63;;;13.00;99.90;;;;;;4935520;29;20032;-65
2023/01/06 13:17:08;;;;;;;6.82;1.52;;;13.20;99.90;;;;;;4935506;29;20046;-66